Time,TemperatureF,DewpointF,PressureIn,WindDirection,WindDirectionDegrees,WindSpeedMPH,WindSpeedGustMPH,Humidity,HourlyPrecipIn,Conditions,Clouds,dailyrainin,SoftwareType,DateUTC
2013-04-24 00:02:00,25.0,16.0,-100.00,WNW,295,1.0,4.0,67,0.00,,,-99.99,,2013-04-24 05:02:00,
2013-04-24 00:12:00,25.0,16.0,-100.00,WNW,295,1.0,4.0,67,0.00,,,-99.99,,2013-04-24 05:12:00,
2013-04-24 00:22:00,25.0,16.0,-100.00,WNW,295,1.0,4.0,67,0.00,,,-99.99,,2013-04-24 05:22:00,
2013-04-24 00:52:00,25.0,15.0,-100.00,NNW,330,1.0,5.0,66,0.00,,,-99.99,,2013-04-24 05:52:00,
2013-04-24 01:02:00,25.0,15.0,-100.00,NNW,330,1.0,5.0,66,0.00,,,-99.99,,2013-04-24 06:02:00,
2013-04-24 01:12:00,25.0,15.0,-100.00,NNW,330,1.0,5.0,66,0.00,,,-99.99,,2013-04-24 06:12:00,
2013-04-24 01:21:00,25.0,15.0,-100.00,NNW,330,1.0,5.0,66,0.00,,,-99.99,,2013-04-24 06:21:00,
2013-04-24 01:42:00,24.0,14.0,-100.00,NW,310,2.0,4.0,64,0.00,,,-99.99,,2013-04-24 06:42:00,
2013-04-24 01:52:00,24.0,14.0,-100.00,NW,310,2.0,4.0,64,0.00,,,-99.99,,2013-04-24 06:52:00,
2013-04-24 02:02:00,24.0,14.0,-100.00,NW,310,2.0,4.0,64,0.00,,,-99.99,,2013-04-24 07:02:00,
2013-04-24 02:11:00,24.0,14.0,-100.00,NW,310,2.0,4.0,64,0.00,,,-99.99,,2013-04-24 07:11:00,
2013-04-24 02:22:00,24.0,14.0,-100.00,NW,310,2.0,4.0,64,0.00,,,-99.99,,2013-04-24 07:22:00,
2013-04-24 02:52:00,24.0,13.0,-100.00,WNW,295,3.0,5.0,63,0.00,,,-99.99,,2013-04-24 07:52:00,
2013-04-24 03:02:00,24.0,13.0,-100.00,WNW,295,3.0,5.0,63,0.00,,,-99.99,,2013-04-24 08:02:00,
2013-04-24 03:12:00,24.0,13.0,-100.00,WNW,295,3.0,5.0,63,0.00,,,-99.99,,2013-04-24 08:12:00,
2013-04-24 03:21:00,24.0,13.0,-100.00,WNW,295,3.0,5.0,63,0.00,,,-99.99,,2013-04-24 08:21:00,
2013-04-24 03:52:00,22.0,12.0,-100.00,West,280,4.0,5.0,64,0.00,,,-99.99,,2013-04-24 08:52:00,
2013-04-24 04:02:00,22.0,12.0,-100.00,West,280,4.0,5.0,64,0.00,,,-99.99,,2013-04-24 09:02:00,
2013-04-24 04:11:00,22.0,12.0,-100.00,West,280,4.0,5.0,64,0.00,,,-99.99,,2013-04-24 09:11:00,
2013-04-24 04:21:00,22.0,12.0,-100.00,West,280,4.0,5.0,64,0.00,,,-99.99,,2013-04-24 09:21:00,
2013-04-24 04:53:00,21.0,12.0,-100.00,West,280,2.0,4.0,66,0.00,,,-99.99,,2013-04-24 09:53:00,
2013-04-24 05:02:00,21.0,12.0,-100.00,West,280,2.0,4.0,66,0.00,,,-99.99,,2013-04-24 10:02:00,
2013-04-24 05:12:00,21.0,12.0,-100.00,West,280,2.0,4.0,66,0.00,,,-99.99,,2013-04-24 10:12:00,
2013-04-24 05:22:00,21.0,12.0,-100.00,West,280,2.0,4.0,66,0.00,,,-99.99,,2013-04-24 10:22:00,
2013-04-24 05:42:00,20.0,12.0,-100.00,NNW,330,0.0,1.0,72,0.00,,,-99.99,,2013-04-24 10:42:00,
2013-04-24 05:53:00,20.0,12.0,-100.00,NNW,330,0.0,1.0,72,0.00,,,-99.99,,2013-04-24 10:53:00,
2013-04-24 06:02:00,20.0,12.0,-100.00,NNW,330,0.0,1.0,72,0.00,,,-99.99,,2013-04-24 11:02:00,
2013-04-24 06:11:00,20.0,12.0,-100.00,NNW,330,0.0,1.0,72,0.00,,,-99.99,,2013-04-24 11:11:00,
2013-04-24 06:21:00,20.0,12.0,-100.00,NNW,330,0.0,1.0,72,0.00,,,-99.99,,2013-04-24 11:21:00,
2013-04-24 06:52:00,18.0,12.0,-100.00,NW,320,0.0,1.0,77,0.00,,,-99.99,,2013-04-24 11:52:00,
2013-04-24 07:02:00,18.0,12.0,-100.00,NW,320,0.0,1.0,77,0.00,,,-99.99,,2013-04-24 12:02:00,
2013-04-24 07:11:00,18.0,12.0,-100.00,NW,320,0.0,1.0,77,0.00,,,-99.99,,2013-04-24 12:11:00,
2013-04-24 07:22:00,18.0,12.0,-100.00,NW,320,0.0,1.0,77,0.00,,,-99.99,,2013-04-24 12:22:00,
2013-04-24 07:52:00,26.0,15.0,-100.00,West,260,1.0,2.0,63,0.00,,,-99.99,,2013-04-24 12:52:00,
2013-04-24 08:01:00,26.0,15.0,-100.00,West,260,1.0,2.0,63,0.00,,,-99.99,,2013-04-24 13:01:00,
2013-04-24 08:12:00,26.0,15.0,-100.00,West,260,1.0,2.0,63,0.00,,,-99.99,,2013-04-24 13:12:00,
2013-04-24 08:22:00,26.0,15.0,-100.00,West,260,1.0,2.0,63,0.00,,,-99.99,,2013-04-24 13:22:00,
2013-04-24 08:52:00,32.0,10.0,-100.00,West,275,3.0,6.0,39,0.00,,,-99.99,,2013-04-24 13:52:00,
2013-04-24 09:01:00,32.0,10.0,-100.00,West,275,3.0,6.0,39,0.00,,,-99.99,,2013-04-24 14:01:00,
2013-04-24 09:11:00,32.0,10.0,-100.00,West,275,3.0,6.0,39,0.00,,,-99.99,,2013-04-24 14:11:00,
2013-04-24 09:21:00,32.0,10.0,-100.00,West,275,3.0,6.0,39,0.00,,,-99.99,,2013-04-24 14:21:00,
2013-04-24 09:52:00,36.0,10.0,-100.00,West,270,2.0,9.0,33,0.00,,,-99.99,,2013-04-24 14:52:00,
2013-04-24 10:01:00,36.0,10.0,-100.00,West,270,2.0,9.0,33,0.00,,,-99.99,,2013-04-24 15:01:00,
2013-04-24 10:11:00,36.0,10.0,-100.00,West,270,2.0,9.0,33,0.00,,,-99.99,,2013-04-24 15:11:00,
2013-04-24 10:21:00,36.0,10.0,-100.00,West,270,2.0,9.0,33,0.00,,,-99.99,,2013-04-24 15:21:00,
2013-04-24 10:53:00,38.0,8.0,-100.00,West,280,9.0,14.0,28,0.00,,,-99.99,,2013-04-24 15:53:00,
2013-04-24 11:03:00,38.0,8.0,-100.00,West,280,9.0,14.0,28,0.00,,,-99.99,,2013-04-24 16:03:00,
2013-04-24 11:12:00,38.0,8.0,-100.00,West,280,9.0,14.0,28,0.00,,,-99.99,,2013-04-24 16:12:00,
2013-04-24 11:23:00,38.0,8.0,-100.00,West,280,9.0,14.0,28,0.00,,,-99.99,,2013-04-24 16:23:00,
2013-04-24 11:53:00,44.0,11.0,-100.00,SW,235,6.0,16.0,25,0.00,,,-99.99,,2013-04-24 16:53:00,
2013-04-24 12:02:00,44.0,11.0,-100.00,SW,235,6.0,16.0,25,0.00,,,-99.99,,2013-04-24 17:02:00,
2013-04-24 12:12:00,44.0,11.0,-100.00,SW,235,6.0,16.0,25,0.00,,,-99.99,,2013-04-24 17:12:00,
2013-04-24 12:22:00,44.0,11.0,-100.00,SW,235,6.0,16.0,25,0.00,,,-99.99,,2013-04-24 17:22:00,
2013-04-24 12:52:00,44.0,8.0,-100.00,West,265,8.0,17.0,23,0.00,,,-99.99,,2013-04-24 17:52:00,
2013-04-24 13:02:00,44.0,8.0,-100.00,West,265,8.0,17.0,23,0.00,,,-99.99,,2013-04-24 18:02:00,
2013-04-24 13:12:00,44.0,8.0,-100.00,West,265,8.0,17.0,23,0.00,,,-99.99,,2013-04-24 18:12:00,
2013-04-24 13:22:00,44.0,8.0,-100.00,West,265,8.0,17.0,23,0.00,,,-99.99,,2013-04-24 18:22:00,
2013-04-24 13:52:00,49.0,7.0,-100.00,SW,220,6.0,12.0,18,0.00,,,-99.99,,2013-04-24 18:52:00,
2013-04-24 14:02:00,49.0,7.0,-100.00,SW,220,6.0,12.0,18,0.00,,,-99.99,,2013-04-24 19:02:00,
2013-04-24 14:11:00,49.0,7.0,-100.00,SW,220,6.0,12.0,18,0.00,,,-99.99,,2013-04-24 19:11:00,
2013-04-24 14:22:00,49.0,7.0,-100.00,SW,220,6.0,12.0,18,0.00,,,-99.99,,2013-04-24 19:22:00,
2013-04-24 14:52:00,45.0,8.0,-100.00,West,270,9.0,18.0,22,0.00,,,-99.99,,2013-04-24 19:52:00,
2013-04-24 15:02:00,45.0,8.0,-100.00,West,270,9.0,18.0,22,0.00,,,-99.99,,2013-04-24 20:02:00,
2013-04-24 15:11:00,45.0,8.0,-100.00,West,270,9.0,18.0,22,0.00,,,-99.99,,2013-04-24 20:11:00,
2013-04-24 15:22:00,45.0,8.0,-100.00,West,270,9.0,18.0,22,0.00,,,-99.99,,2013-04-24 20:22:00,
2013-04-24 15:52:00,44.0,15.0,-100.00,West,265,6.0,10.0,31,0.00,,,-99.99,,2013-04-24 20:52:00,
2013-04-24 16:02:00,44.0,15.0,-100.00,West,265,6.0,10.0,31,0.00,,,-99.99,,2013-04-24 21:02:00,
2013-04-24 16:11:00,44.0,15.0,-100.00,West,265,6.0,10.0,31,0.00,,,-99.99,,2013-04-24 21:11:00,
2013-04-24 16:21:00,44.0,15.0,-100.00,West,265,6.0,10.0,31,0.00,,,-99.99,,2013-04-24 21:21:00,
2013-04-24 16:52:00,40.0,25.0,-100.00,West,280,6.0,14.0,56,0.00,,,-99.99,,2013-04-24 21:52:00,
2013-04-24 17:03:00,40.0,25.0,-100.00,West,280,6.0,14.0,56,0.00,,,-99.99,,2013-04-24 22:03:00,
2013-04-24 17:12:00,40.0,25.0,-100.00,West,280,6.0,14.0,56,0.00,,,-99.99,,2013-04-24 22:12:00,
2013-04-24 17:22:00,40.0,25.0,-100.00,West,280,6.0,14.0,56,0.00,,,-99.99,,2013-04-24 22:22:00,
2013-04-24 17:52:00,41.0,27.0,-100.00,WNW,295,2.0,6.0,58,0.00,,,-99.99,,2013-04-24 22:52:00,
2013-04-24 18:02:00,41.0,27.0,-100.00,WNW,295,2.0,6.0,58,0.00,,,-99.99,,2013-04-24 23:02:00,
2013-04-24 18:12:00,41.0,27.0,-100.00,WNW,295,2.0,6.0,58,0.00,,,-99.99,,2013-04-24 23:12:00,
2013-04-24 18:21:00,41.0,27.0,-100.00,WNW,295,2.0,6.0,58,0.00,,,-99.99,,2013-04-24 23:21:00,
2013-04-24 18:52:00,36.0,31.0,-100.00,West,265,1.0,3.0,81,0.00,,,-99.99,,2013-04-24 23:52:00,
2013-04-24 19:02:00,36.0,31.0,-100.00,West,265,1.0,3.0,81,0.00,,,-99.99,,2013-04-25 00:02:00,
2013-04-24 19:12:00,36.0,31.0,-100.00,West,265,1.0,3.0,81,0.00,,,-99.99,,2013-04-25 00:12:00,
2013-04-24 19:22:00,36.0,31.0,-100.00,West,265,1.0,3.0,81,0.00,,,-99.99,,2013-04-25 00:22:00,
2013-04-24 19:52:00,33.0,29.0,-100.00,NNW,335,0.0,4.0,86,0.00,,,-99.99,,2013-04-25 00:52:00,
2013-04-24 20:01:00,33.0,29.0,-100.00,NNW,335,0.0,4.0,86,0.00,,,-99.99,,2013-04-25 01:01:00,
2013-04-24 20:11:00,33.0,29.0,-100.00,NNW,335,0.0,4.0,86,0.00,,,-99.99,,2013-04-25 01:11:00,
2013-04-24 20:23:00,33.0,29.0,-100.00,NNW,335,0.0,4.0,86,0.00,,,-99.99,,2013-04-25 01:23:00,
2013-04-24 20:42:00,33.0,29.0,-100.00,West,270,0.0,1.0,87,0.00,,,-99.99,,2013-04-25 01:42:00,
2013-04-24 20:52:00,33.0,29.0,-100.00,West,270,0.0,1.0,87,0.00,,,-99.99,,2013-04-25 01:52:00,
2013-04-24 21:02:00,33.0,29.0,-100.00,West,270,0.0,1.0,87,0.00,,,-99.99,,2013-04-25 02:02:00,
2013-04-24 21:11:00,33.0,29.0,-100.00,West,270,0.0,1.0,87,0.00,,,-99.99,,2013-04-25 02:11:00,
2013-04-24 21:22:00,33.0,29.0,-100.00,West,270,0.0,1.0,87,0.00,,,-99.99,,2013-04-25 02:22:00,
2013-04-24 22:02:00,32.0,29.0,-100.00,WNW,295,0.0,1.0,88,0.00,,,-99.99,,2013-04-25 03:02:00,
2013-04-24 22:11:00,32.0,29.0,-100.00,WNW,295,0.0,1.0,88,0.00,,,-99.99,,2013-04-25 03:11:00,
2013-04-24 22:22:00,32.0,29.0,-100.00,WNW,295,0.0,1.0,88,0.00,,,-99.99,,2013-04-25 03:22:00,
2013-04-24 22:43:00,32.0,28.0,-100.00,West,275,2.0,4.0,88,0.00,,,-99.99,,2013-04-25 03:43:00,
2013-04-24 22:52:00,32.0,28.0,-100.00,West,275,2.0,4.0,88,0.00,,,-99.99,,2013-04-25 03:52:00,
2013-04-24 23:03:00,32.0,28.0,-100.00,West,275,2.0,4.0,88,0.00,,,-99.99,,2013-04-25 04:03:00,
2013-04-24 23:12:00,32.0,28.0,-100.00,West,275,2.0,4.0,88,0.00,,,-99.99,,2013-04-25 04:12:00,
2013-04-24 23:22:00,32.0,28.0,-100.00,West,275,2.0,4.0,88,0.00,,,-99.99,,2013-04-25 04:22:00,
2013-04-24 23:52:00,30.0,27.0,-100.00,West,260,0.0,1.0,89,0.00,,,-99.99,,2013-04-25 04:52:00,